Terminal Aerodrome Forecast
Issued by NWS Sterling, VA

Home | Current Version | Previous Version | Text Only | Print | Product List | Glossary On
Versions: 1 2 3 4 5 6 7 8 9 10 11 12 13 14 15 16 17 18 19 20 21 22
000
FTUS41 KLWX 272329
TAFBWI
TAF
KBWI 272329Z 2800/2906 VRB03KT P6SM SKC
     FM281300 04004KT P6SM FEW060
     FM282200 12004KT P6SM SKC
     FM290300 18006KT P6SM SKC=

USA.gov is the U.S. government's official web portal to all federal, state and local government web resources and services.